sensor_id;sensor_type;location;lat;lon;timestamp;temperature;humidity
25741;DHT22;13592;50.838;4.412;2022-10-23T00:02:09;16.70;99.90
25741;DHT22;13592;50.838;4.412;2022-10-23T00:04:43;16.90;99.90
25741;DHT22;13592;50.838;4.412;2022-10-23T00:10:12;16.90;99.90
25741;DHT22;13592;50.838;4.412;2022-10-23T00:15:41;16.90;99.90
25741;DHT22;13592;50.838;4.412;2022-10-23T00:18:08;16.80;99.90
25741;DHT22;13592;50.838;4.412;2022-10-23T00:20:34;16.80;99.90
25741;DHT22;13592;50.838;4.412;2022-10-23T00:23:05;16.80;99.90
25741;DHT22;13592;50.838;4.412;2022-10-23T00:25:34;16.80;99.90
25741;DHT22;13592;50.838;4.412;2022-10-23T00:28:05;16.80;99.90
25741;DHT22;13592;50.838;4.412;2022-10-23T00:30:35;16.70;99.90
25741;DHT22;13592;50.838;4.412;2022-10-23T00:38:56;16.70;99.90
25741;DHT22;13592;50.838;4.412;2022-10-23T00:41:25;17.00;99.90
25741;DHT22;13592;50.838;4.412;2022-10-23T00:46:22;17.10;99.90
25741;DHT22;13592;50.838;4.412;2022-10-23T00:48:47;17.20;99.90
25741;DHT22;13592;50.838;4.412;2022-10-23T00:51:13;17.10;99.90
25741;DHT22;13592;50.838;4.412;2022-10-23T00:53:42;17.20;99.90
25741;DHT22;13592;50.838;4.412;2022-10-23T00:56:08;17.30;99.90
25741;DHT22;13592;50.838;4.412;2022-10-23T00:58:37;17.10;99.90
25741;DHT22;13592;50.838;4.412;2022-10-23T01:01:25;17.00;99.90
25741;DHT22;13592;50.838;4.412;2022-10-23T01:14:46;16.90;99.90
25741;DHT22;13592;50.838;4.412;2022-10-23T01:29:04;17.00;99.90
25741;DHT22;13592;50.838;4.412;2022-10-23T01:31:03;17.00;99.90
25741;DHT22;13592;50.838;4.412;2022-10-23T01:33:38;17.00;99.90
25741;DHT22;13592;50.838;4.412;2022-10-23T01:36:08;17.10;99.90
25741;DHT22;13592;50.838;4.412;2022-10-23T01:44:10;17.00;99.90
25741;DHT22;13592;50.838;4.412;2022-10-23T01:46:36;17.30;99.90
25741;DHT22;13592;50.838;4.412;2022-10-23T01:49:03;17.30;99.90
25741;DHT22;13592;50.838;4.412;2022-10-23T01:51:29;17.50;99.90
25741;DHT22;13592;50.838;4.412;2022-10-23T01:53:57;17.50;99.90
25741;DHT22;13592;50.838;4.412;2022-10-23T01:56:31;17.30;99.90
25741;DHT22;13592;50.838;4.412;2022-10-23T01:58:58;17.10;99.90
25741;DHT22;13592;50.838;4.412;2022-10-23T02:01:26;17.20;99.90
25741;DHT22;13592;50.838;4.412;2022-10-23T02:03:53;17.20;99.90
25741;DHT22;13592;50.838;4.412;2022-10-23T02:06:20;17.30;99.90
25741;DHT22;13592;50.838;4.412;2022-10-23T02:08:45;17.20;99.90
25741;DHT22;13592;50.838;4.412;2022-10-23T02:11:18;17.40;99.90
25741;DHT22;13592;50.838;4.412;2022-10-23T02:18:54;17.20;99.90
25741;DHT22;13592;50.838;4.412;2022-10-23T02:22:05;17.20;99.90
25741;DHT22;13592;50.838;4.412;2022-10-23T02:24:12;17.20;99.90
25741;DHT22;13592;50.838;4.412;2022-10-23T02:26:44;17.00;99.90
25741;DHT22;13592;50.838;4.412;2022-10-23T02:29:17;16.90;99.90
25741;DHT22;13592;50.838;4.412;2022-10-23T02:31:45;16.90;99.90
25741;DHT22;13592;50.838;4.412;2022-10-23T02:34:14;17.00;99.90
25741;DHT22;13592;50.838;4.412;2022-10-23T02:39:09;17.00;99.90
25741;DHT22;13592;50.838;4.412;2022-10-23T02:41:43;17.20;99.90
25741;DHT22;13592;50.838;4.412;2022-10-23T02:49:43;17.00;99.90
25741;DHT22;13592;50.838;4.412;2022-10-23T03:00:12;17.00;99.90
25741;DHT22;13592;50.838;4.412;2022-10-23T03:05:28;17.30;99.90
25741;DHT22;13592;50.838;4.412;2022-10-23T03:07:55;17.10;99.90
25741;DHT22;13592;50.838;4.412;2022-10-23T03:10:24;16.90;99.90
25741;DHT22;13592;50.838;4.412;2022-10-23T03:12:49;17.00;99.90
25741;DHT22;13592;50.838;4.412;2022-10-23T03:15:16;17.30;99.90
25741;DHT22;13592;50.838;4.412;2022-10-23T03:17:42;17.10;99.90
25741;DHT22;13592;50.838;4.412;2022-10-23T03:20:09;17.10;99.90
25741;DHT22;13592;50.838;4.412;2022-10-23T03:22:35;17.00;99.90
25741;DHT22;13592;50.838;4.412;2022-10-23T03:27:30;17.20;99.90
25741;DHT22;13592;50.838;4.412;2022-10-23T03:29:56;17.30;99.90
25741;DHT22;13592;50.838;4.412;2022-10-23T03:34:53;17.30;99.90
25741;DHT22;13592;50.838;4.412;2022-10-23T03:39:50;17.30;99.90
25741;DHT22;13592;50.838;4.412;2022-10-23T03:42:16;17.10;99.90
25741;DHT22;13592;50.838;4.412;2022-10-23T03:44:41;17.00;99.90
25741;DHT22;13592;50.838;4.412;2022-10-23T03:47:09;17.10;99.90
25741;DHT22;13592;50.838;4.412;2022-10-23T03:49:39;17.10;99.90
25741;DHT22;13592;50.838;4.412;2022-10-23T03:52:07;17.40;99.90
25741;DHT22;13592;50.838;4.412;2022-10-23T03:54:36;17.30;99.90
25741;DHT22;13592;50.838;4.412;2022-10-23T03:57:05;17.30;99.90
25741;DHT22;13592;50.838;4.412;2022-10-23T03:59:32;17.30;99.90
25741;DHT22;13592;50.838;4.412;2022-10-23T04:01:59;17.30;99.90
25741;DHT22;13592;50.838;4.412;2022-10-23T04:04:24;17.10;99.90
25741;DHT22;13592;50.838;4.412;2022-10-23T04:06:53;16.90;99.90
25741;DHT22;13592;50.838;4.412;2022-10-23T04:09:19;17.00;99.90
25741;DHT22;13592;50.838;4.412;2022-10-23T04:11:44;16.80;99.90
25741;DHT22;13592;50.838;4.412;2022-10-23T04:14:13;16.80;99.90
25741;DHT22;13592;50.838;4.412;2022-10-23T04:16:38;16.90;99.90
25741;DHT22;13592;50.838;4.412;2022-10-23T04:19:07;16.90;99.90
25741;DHT22;13592;50.838;4.412;2022-10-23T04:21:35;16.70;99.90
25741;DHT22;13592;50.838;4.412;2022-10-23T04:24:00;16.60;99.90
25741;DHT22;13592;50.838;4.412;2022-10-23T04:26:29;16.60;99.90
25741;DHT22;13592;50.838;4.412;2022-10-23T04:31:23;16.70;99.90
25741;DHT22;13592;50.838;4.412;2022-10-23T04:33:55;16.70;99.90
25741;DHT22;13592;50.838;4.412;2022-10-23T04:36:23;16.70;99.90
25741;DHT22;13592;50.838;4.412;2022-10-23T04:38:50;17.00;99.90
25741;DHT22;13592;50.838;4.412;2022-10-23T04:41:17;17.00;99.90
25741;DHT22;13592;50.838;4.412;2022-10-23T04:43:45;17.20;99.90
25741;DHT22;13592;50.838;4.412;2022-10-23T04:46:13;17.20;99.90
25741;DHT22;13592;50.838;4.412;2022-10-23T04:48:39;17.10;99.90
25741;DHT22;13592;50.838;4.412;2022-10-23T04:51:08;16.90;99.90
25741;DHT22;13592;50.838;4.412;2022-10-23T04:53:37;16.90;99.90
25741;DHT22;13592;50.838;4.412;2022-10-23T04:56:04;17.20;99.90
25741;DHT22;13592;50.838;4.412;2022-10-23T04:58:30;17.00;99.90
25741;DHT22;13592;50.838;4.412;2022-10-23T05:01:02;17.00;99.90
25741;DHT22;13592;50.838;4.412;2022-10-23T05:03:27;17.40;99.90
25741;DHT22;13592;50.838;4.412;2022-10-23T05:05:54;17.10;99.90
25741;DHT22;13592;50.838;4.412;2022-10-23T05:08:20;17.20;99.90
25741;DHT22;13592;50.838;4.412;2022-10-23T05:10:52;17.30;99.90
25741;DHT22;13592;50.838;4.412;2022-10-23T05:13:18;17.20;99.90
25741;DHT22;13592;50.838;4.412;2022-10-23T05:15:48;17.30;99.90
25741;DHT22;13592;50.838;4.412;2022-10-23T05:21:12;17.40;99.90
25741;DHT22;13592;50.838;4.412;2022-10-23T05:23:39;17.20;99.90
25741;DHT22;13592;50.838;4.412;2022-10-23T05:26:08;17.10;99.90
25741;DHT22;13592;50.838;4.412;2022-10-23T05:28:34;17.30;99.90
25741;DHT22;13592;50.838;4.412;2022-10-23T05:31:19;17.20;99.90
25741;DHT22;13592;50.838;4.412;2022-10-23T05:33:46;17.40;99.90
25741;DHT22;13592;50.838;4.412;2022-10-23T05:36:14;17.20;99.90
25741;DHT22;13592;50.838;4.412;2022-10-23T05:41:10;16.90;99.90
25741;DHT22;13592;50.838;4.412;2022-10-23T05:43:35;17.20;99.90
25741;DHT22;13592;50.838;4.412;2022-10-23T05:46:04;17.20;99.90
25741;DHT22;13592;50.838;4.412;2022-10-23T05:48:30;17.50;99.90
25741;DHT22;13592;50.838;4.412;2022-10-23T05:51:06;17.50;99.90
25741;DHT22;13592;50.838;4.412;2022-10-23T05:58:49;16.90;99.90
25741;DHT22;13592;50.838;4.412;2022-10-23T06:01:32;17.10;99.90
25741;DHT22;13592;50.838;4.412;2022-10-23T06:03:58;17.00;99.90
25741;DHT22;13592;50.838;4.412;2022-10-23T06:06:26;17.10;99.90
25741;DHT22;13592;50.838;4.412;2022-10-23T06:11:20;17.10;99.90
25741;DHT22;13592;50.838;4.412;2022-10-23T06:13:46;17.20;99.90
25741;DHT22;13592;50.838;4.412;2022-10-23T06:16:14;17.10;99.90
25741;DHT22;13592;50.838;4.412;2022-10-23T06:18:41;17.00;99.90
25741;DHT22;13592;50.838;4.412;2022-10-23T06:23:37;17.30;99.90
25741;DHT22;13592;50.838;4.412;2022-10-23T06:26:11;17.30;99.90
25741;DHT22;13592;50.838;4.412;2022-10-23T06:28:38;17.20;99.90
25741;DHT22;13592;50.838;4.412;2022-10-23T06:31:06;17.30;99.90
25741;DHT22;13592;50.838;4.412;2022-10-23T06:33:45;17.40;99.90
25741;DHT22;13592;50.838;4.412;2022-10-23T06:38:40;17.30;99.90
25741;DHT22;13592;50.838;4.412;2022-10-23T06:41:13;17.30;99.90
25741;DHT22;13592;50.838;4.412;2022-10-23T06:43:41;17.30;99.90
25741;DHT22;13592;50.838;4.412;2022-10-23T06:46:08;17.40;99.90
25741;DHT22;13592;50.838;4.412;2022-10-23T06:48:34;17.50;99.90
25741;DHT22;13592;50.838;4.412;2022-10-23T06:51:05;17.50;99.90
25741;DHT22;13592;50.838;4.412;2022-10-23T06:53:35;17.40;99.90
25741;DHT22;13592;50.838;4.412;2022-10-23T06:56:03;17.30;99.90
25741;DHT22;13592;50.838;4.412;2022-10-23T06:58:32;17.50;99.90
25741;DHT22;13592;50.838;4.412;2022-10-23T07:01:05;17.30;99.90
25741;DHT22;13592;50.838;4.412;2022-10-23T07:03:38;17.40;99.90
25741;DHT22;13592;50.838;4.412;2022-10-23T07:06:06;17.30;99.90
25741;DHT22;13592;50.838;4.412;2022-10-23T07:08:32;17.40;99.90
25741;DHT22;13592;50.838;4.412;2022-10-23T07:16:12;17.90;99.90
25741;DHT22;13592;50.838;4.412;2022-10-23T07:18:39;17.90;99.90
25741;DHT22;13592;50.838;4.412;2022-10-23T07:21:20;17.60;99.90
25741;DHT22;13592;50.838;4.412;2022-10-23T07:23:49;17.50;99.90
25741;DHT22;13592;50.838;4.412;2022-10-23T07:26:20;17.50;99.90
25741;DHT22;13592;50.838;4.412;2022-10-23T07:28:57;17.60;99.90
25741;DHT22;13592;50.838;4.412;2022-10-23T07:31:26;17.80;99.90
25741;DHT22;13592;50.838;4.412;2022-10-23T07:33:54;17.70;99.90
25741;DHT22;13592;50.838;4.412;2022-10-23T07:36:20;17.90;99.90
25741;DHT22;13592;50.838;4.412;2022-10-23T07:38:46;17.90;99.90
25741;DHT22;13592;50.838;4.412;2022-10-23T07:41:13;18.10;99.90
25741;DHT22;13592;50.838;4.412;2022-10-23T07:46:08;18.00;99.90
25741;DHT22;13592;50.838;4.412;2022-10-23T07:48:34;18.10;99.90
25741;DHT22;13592;50.838;4.412;2022-10-23T07:51:01;17.90;99.90
25741;DHT22;13592;50.838;4.412;2022-10-23T07:53:27;17.70;99.90
25741;DHT22;13592;50.838;4.412;2022-10-23T07:55:53;17.80;99.90
25741;DHT22;13592;50.838;4.412;2022-10-23T07:58:19;18.20;99.90
25741;DHT22;13592;50.838;4.412;2022-10-23T08:00:47;18.30;99.90
25741;DHT22;13592;50.838;4.412;2022-10-23T08:03:19;18.10;99.90
25741;DHT22;13592;50.838;4.412;2022-10-23T08:05:44;17.90;99.90
25741;DHT22;13592;50.838;4.412;2022-10-23T08:08:10;18.00;99.90
25741;DHT22;13592;50.838;4.412;2022-10-23T08:10:37;17.80;99.90
25741;DHT22;13592;50.838;4.412;2022-10-23T08:13:02;17.90;99.90
25741;DHT22;13592;50.838;4.412;2022-10-23T08:15:28;18.10;99.90
25741;DHT22;13592;50.838;4.412;2022-10-23T08:17:53;17.90;99.90
25741;DHT22;13592;50.838;4.412;2022-10-23T08:20:20;18.10;99.90
25741;DHT22;13592;50.838;4.412;2022-10-23T08:22:47;18.20;99.90
25741;DHT22;13592;50.838;4.412;2022-10-23T08:25:14;17.90;99.90
25741;DHT22;13592;50.838;4.412;2022-10-23T08:27:40;17.90;99.90
25741;DHT22;13592;50.838;4.412;2022-10-23T08:30:06;18.10;99.90
25741;DHT22;13592;50.838;4.412;2022-10-23T08:32:32;17.80;99.90
25741;DHT22;13592;50.838;4.412;2022-10-23T08:34:59;18.10;99.90
25741;DHT22;13592;50.838;4.412;2022-10-23T08:37:24;18.00;99.90
25741;DHT22;13592;50.838;4.412;2022-10-23T08:39:51;18.00;99.90
25741;DHT22;13592;50.838;4.412;2022-10-23T08:42:24;18.10;99.90
25741;DHT22;13592;50.838;4.412;2022-10-23T08:47:40;17.90;99.90
25741;DHT22;13592;50.838;4.412;2022-10-23T08:50:19;18.10;99.90
25741;DHT22;13592;50.838;4.412;2022-10-23T08:52:58;18.00;99.90
25741;DHT22;13592;50.838;4.412;2022-10-23T08:55:26;17.90;99.90
25741;DHT22;13592;50.838;4.412;2022-10-23T08:57:57;17.80;99.90
25741;DHT22;13592;50.838;4.412;2022-10-23T09:00:25;18.00;99.90
25741;DHT22;13592;50.838;4.412;2022-10-23T09:02:51;18.00;99.90
25741;DHT22;13592;50.838;4.412;2022-10-23T09:11:03;18.30;99.90
25741;DHT22;13592;50.838;4.412;2022-10-23T09:16:27;17.90;99.90
25741;DHT22;13592;50.838;4.412;2022-10-23T09:19:00;17.80;99.90
25741;DHT22;13592;50.838;4.412;2022-10-23T09:21:29;17.90;99.90
25741;DHT22;13592;50.838;4.412;2022-10-23T09:23:55;17.90;99.90
25741;DHT22;13592;50.838;4.412;2022-10-23T09:26:22;18.10;99.90
25741;DHT22;13592;50.838;4.412;2022-10-23T09:28:49;18.20;99.90
25741;DHT22;13592;50.838;4.412;2022-10-23T09:31:18;18.40;99.90
25741;DHT22;13592;50.838;4.412;2022-10-23T09:33:54;18.30;99.90
25741;DHT22;13592;50.838;4.412;2022-10-23T09:36:27;18.20;99.90
25741;DHT22;13592;50.838;4.412;2022-10-23T09:38:58;18.30;99.90
25741;DHT22;13592;50.838;4.412;2022-10-23T09:41:37;18.40;99.90
25741;DHT22;13592;50.838;4.412;2022-10-23T09:46:44;18.40;99.90
25741;DHT22;13592;50.838;4.412;2022-10-23T09:49:15;18.60;99.90
25741;DHT22;13592;50.838;4.412;2022-10-23T09:51:50;18.80;99.90
25741;DHT22;13592;50.838;4.412;2022-10-23T09:54:17;18.90;99.90
25741;DHT22;13592;50.838;4.412;2022-10-23T09:59:18;18.50;99.90
25741;DHT22;13592;50.838;4.412;2022-10-23T10:04:15;18.90;99.90
25741;DHT22;13592;50.838;4.412;2022-10-23T10:06:41;19.00;99.90
25741;DHT22;13592;50.838;4.412;2022-10-23T10:09:12;19.10;99.90
25741;DHT22;13592;50.838;4.412;2022-10-23T10:11:40;19.10;99.90
25741;DHT22;13592;50.838;4.412;2022-10-23T10:22:55;19.10;99.90
25741;DHT22;13592;50.838;4.412;2022-10-23T10:28:10;19.40;99.90
25741;DHT22;13592;50.838;4.412;2022-10-23T10:33:34;19.50;99.90
25741;DHT22;13592;50.838;4.412;2022-10-23T10:38:59;19.10;99.90
25741;DHT22;13592;50.838;4.412;2022-10-23T10:44:26;19.30;99.90
25741;DHT22;13592;50.838;4.412;2022-10-23T10:49:39;19.10;99.90
25741;DHT22;13592;50.838;4.412;2022-10-23T10:52:13;19.50;99.90
25741;DHT22;13592;50.838;4.412;2022-10-23T11:00:12;19.60;99.90
25741;DHT22;13592;50.838;4.412;2022-10-23T11:02:39;19.70;99.90
25741;DHT22;13592;50.838;4.412;2022-10-23T11:07:49;19.90;99.90
25741;DHT22;13592;50.838;4.412;2022-10-23T11:10:18;19.80;99.90
25741;DHT22;13592;50.838;4.412;2022-10-23T11:12:47;19.60;99.90
25741;DHT22;13592;50.838;4.412;2022-10-23T11:15:19;19.70;99.90
25741;DHT22;13592;50.838;4.412;2022-10-23T11:17:47;19.80;99.90
25741;DHT22;13592;50.838;4.412;2022-10-23T11:22:51;19.80;99.90
25741;DHT22;13592;50.838;4.412;2022-10-23T11:25:34;19.80;99.90
25741;DHT22;13592;50.838;4.412;2022-10-23T11:38:54;20.20;99.90
25741;DHT22;13592;50.838;4.412;2022-10-23T11:46:32;20.30;99.90
25741;DHT22;13592;50.838;4.412;2022-10-23T11:51:39;20.00;99.90
25741;DHT22;13592;50.838;4.412;2022-10-23T11:59:33;20.60;99.90
25741;DHT22;13592;50.838;4.412;2022-10-23T12:02:02;20.40;99.90
25741;DHT22;13592;50.838;4.412;2022-10-23T12:04:40;20.40;99.90
25741;DHT22;13592;50.838;4.412;2022-10-23T12:10:42;20.80;99.90
25741;DHT22;13592;50.838;4.412;2022-10-23T12:13:03;20.80;99.90
25741;DHT22;13592;50.838;4.412;2022-10-23T12:15:51;21.10;99.90
25741;DHT22;13592;50.838;4.412;2022-10-23T12:18:21;20.90;99.90
25741;DHT22;13592;50.838;4.412;2022-10-23T12:36:41;20.90;99.90
25741;DHT22;13592;50.838;4.412;2022-10-23T12:53:01;20.80;99.90
25741;DHT22;13592;50.838;4.412;2022-10-23T12:55:30;21.00;99.90
25741;DHT22;13592;50.838;4.412;2022-10-23T12:57:58;20.90;99.90
25741;DHT22;13592;50.838;4.412;2022-10-23T13:00:36;21.20;99.90
25741;DHT22;13592;50.838;4.412;2022-10-23T13:03:09;21.00;99.90
25741;DHT22;13592;50.838;4.412;2022-10-23T13:05:36;20.90;99.90
25741;DHT22;13592;50.838;4.412;2022-10-23T13:08:04;21.00;99.90
25741;DHT22;13592;50.838;4.412;2022-10-23T13:19:24;21.20;99.90
25741;DHT22;13592;50.838;4.412;2022-10-23T13:21:53;21.10;99.90
25741;DHT22;13592;50.838;4.412;2022-10-23T13:24:43;21.00;99.90
25741;DHT22;13592;50.838;4.412;2022-10-23T13:27:25;21.00;99.90
25741;DHT22;13592;50.838;4.412;2022-10-23T13:48:07;20.90;99.90
25741;DHT22;13592;50.838;4.412;2022-10-23T13:51:00;20.80;99.90
25741;DHT22;13592;50.838;4.412;2022-10-23T13:53:34;20.70;99.90
25741;DHT22;13592;50.838;4.412;2022-10-23T13:56:13;20.70;99.90
25741;DHT22;13592;50.838;4.412;2022-10-23T14:07:53;20.70;99.90
25741;DHT22;13592;50.838;4.412;2022-10-23T14:16:32;21.00;99.90
25741;DHT22;13592;50.838;4.412;2022-10-23T14:19:29;21.00;99.90
25741;DHT22;13592;50.838;4.412;2022-10-23T14:40:28;20.70;99.90
25741;DHT22;13592;50.838;4.412;2022-10-23T14:43:15;20.90;99.90
25741;DHT22;13592;50.838;4.412;2022-10-23T14:49:00;20.70;99.90
25741;DHT22;13592;50.838;4.412;2022-10-23T15:00:57;21.10;99.90
25741;DHT22;13592;50.838;4.412;2022-10-23T15:07:10;21.10;99.90
25741;DHT22;13592;50.838;4.412;2022-10-23T15:09:39;20.90;99.90
25741;DHT22;13592;50.838;4.412;2022-10-23T15:14:53;20.70;99.90
25741;DHT22;13592;50.838;4.412;2022-10-23T15:17:24;20.80;99.90
25741;DHT22;13592;50.838;4.412;2022-10-23T15:22:58;20.80;99.90
25741;DHT22;13592;50.838;4.412;2022-10-23T15:25:41;20.80;99.90
25741;DHT22;13592;50.838;4.412;2022-10-23T15:28:18;20.60;99.90
25741;DHT22;13592;50.838;4.412;2022-10-23T15:30:46;20.60;99.90
25741;DHT22;13592;50.838;4.412;2022-10-23T15:35:59;20.50;99.90
25741;DHT22;13592;50.838;4.412;2022-10-23T15:38:48;20.40;99.90
25741;DHT22;13592;50.838;4.412;2022-10-23T15:41:30;20.40;99.90
25741;DHT22;13592;50.838;4.412;2022-10-23T15:44:15;20.60;99.90
25741;DHT22;13592;50.838;4.412;2022-10-23T15:53:05;20.60;99.90
25741;DHT22;13592;50.838;4.412;2022-10-23T15:55:51;20.50;99.90
25741;DHT22;13592;50.838;4.412;2022-10-23T16:01:37;20.40;99.90
25741;DHT22;13592;50.838;4.412;2022-10-23T16:09:59;20.30;99.90
25741;DHT22;13592;50.838;4.412;2022-10-23T16:12:29;20.30;99.90
25741;DHT22;13592;50.838;4.412;2022-10-23T16:14:58;20.10;99.90
25741;DHT22;13592;50.838;4.412;2022-10-23T16:17:26;20.10;99.90
25741;DHT22;13592;50.838;4.412;2022-10-23T16:25:42;20.20;99.90
25741;DHT22;13592;50.838;4.412;2022-10-23T16:34:16;20.10;99.90
25741;DHT22;13592;50.838;4.412;2022-10-23T16:37:08;19.90;99.90
25741;DHT22;13592;50.838;4.412;2022-10-23T16:39:38;19.90;99.90
25741;DHT22;13592;50.838;4.412;2022-10-23T16:44:43;19.90;99.90
25741;DHT22;13592;50.838;4.412;2022-10-23T16:47:15;19.70;99.90
25741;DHT22;13592;50.838;4.412;2022-10-23T16:49:49;19.60;99.90
25741;DHT22;13592;50.838;4.412;2022-10-23T16:52:41;19.50;99.90
25741;DHT22;13592;50.838;4.412;2022-10-23T16:55:27;19.50;99.90
25741;DHT22;13592;50.838;4.412;2022-10-23T17:01:06;19.50;99.90
25741;DHT22;13592;50.838;4.412;2022-10-23T17:03:47;19.60;99.90
25741;DHT22;13592;50.838;4.412;2022-10-23T17:06:17;19.60;99.90
25741;DHT22;13592;50.838;4.412;2022-10-23T17:08:44;19.90;99.90
25741;DHT22;13592;50.838;4.412;2022-10-23T17:11:27;19.80;99.90
25741;DHT22;13592;50.838;4.412;2022-10-23T17:14:12;19.70;99.90
25741;DHT22;13592;50.838;4.412;2022-10-23T17:16:59;19.60;99.90
25741;DHT22;13592;50.838;4.412;2022-10-23T17:19:36;19.60;99.90
25741;DHT22;13592;50.838;4.412;2022-10-23T17:22:08;19.40;99.90
25741;DHT22;13592;50.838;4.412;2022-10-23T17:25:09;19.40;99.90
25741;DHT22;13592;50.838;4.412;2022-10-23T17:27:58;19.50;99.90
25741;DHT22;13592;50.838;4.412;2022-10-23T17:30:29;19.60;99.90
25741;DHT22;13592;50.838;4.412;2022-10-23T17:32:57;19.50;99.90
25741;DHT22;13592;50.838;4.412;2022-10-23T17:38:29;19.70;99.90
25741;DHT22;13592;50.838;4.412;2022-10-23T17:44:03;19.50;99.90
25741;DHT22;13592;50.838;4.412;2022-10-23T17:46:40;19.60;99.90
25741;DHT22;13592;50.838;4.412;2022-10-23T17:49:35;19.70;99.90
25741;DHT22;13592;50.838;4.412;2022-10-23T17:52:17;19.90;99.90
25741;DHT22;13592;50.838;4.412;2022-10-23T17:54:51;20.10;99.90
25741;DHT22;13592;50.838;4.412;2022-10-23T18:00:04;19.90;99.90
25741;DHT22;13592;50.838;4.412;2022-10-23T18:09:01;19.70;99.90
25741;DHT22;13592;50.838;4.412;2022-10-23T18:11:43;19.70;99.90
25741;DHT22;13592;50.838;4.412;2022-10-23T18:14:13;19.70;99.90
25741;DHT22;13592;50.838;4.412;2022-10-23T18:16:41;19.70;99.90
25741;DHT22;13592;50.838;4.412;2022-10-23T18:19:10;19.80;99.90
25741;DHT22;13592;50.838;4.412;2022-10-23T18:21:36;19.40;99.90
25741;DHT22;13592;50.838;4.412;2022-10-23T18:24:04;19.00;99.90
25741;DHT22;13592;50.838;4.412;2022-10-23T18:26:31;18.60;99.90
25741;DHT22;13592;50.838;4.412;2022-10-23T18:29:01;18.20;99.90
25741;DHT22;13592;50.838;4.412;2022-10-23T18:31:32;18.10;99.90
25741;DHT22;13592;50.838;4.412;2022-10-23T18:34:05;17.90;99.90
25741;DHT22;13592;50.838;4.412;2022-10-23T18:36:33;17.80;99.90
25741;DHT22;13592;50.838;4.412;2022-10-23T18:39:00;18.00;99.90
25741;DHT22;13592;50.838;4.412;2022-10-23T18:41:25;17.90;99.90
25741;DHT22;13592;50.838;4.412;2022-10-23T18:43:52;17.70;99.90
25741;DHT22;13592;50.838;4.412;2022-10-23T18:46:18;17.60;99.90
25741;DHT22;13592;50.838;4.412;2022-10-23T18:48:44;17.40;99.90
25741;DHT22;13592;50.838;4.412;2022-10-23T18:51:17;17.50;99.90
25741;DHT22;13592;50.838;4.412;2022-10-23T18:53:46;17.60;99.90
25741;DHT22;13592;50.838;4.412;2022-10-23T18:56:13;17.50;99.90
25741;DHT22;13592;50.838;4.412;2022-10-23T18:58:39;17.20;99.90
25741;DHT22;13592;50.838;4.412;2022-10-23T19:01:05;17.30;99.90
25741;DHT22;13592;50.838;4.412;2022-10-23T19:03:31;17.50;99.90
25741;DHT22;13592;50.838;4.412;2022-10-23T19:06:07;17.40;99.90
25741;DHT22;13592;50.838;4.412;2022-10-23T19:08:35;17.20;99.90
25741;DHT22;13592;50.838;4.412;2022-10-23T19:11:02;17.00;99.90
25741;DHT22;13592;50.838;4.412;2022-10-23T19:13:30;16.90;99.90
25741;DHT22;13592;50.838;4.412;2022-10-23T19:15:57;17.10;99.90
25741;DHT22;13592;50.838;4.412;2022-10-23T19:18:23;17.20;99.90
25741;DHT22;13592;50.838;4.412;2022-10-23T19:20:49;17.20;99.90
25741;DHT22;13592;50.838;4.412;2022-10-23T19:23:19;17.10;99.90
25741;DHT22;13592;50.838;4.412;2022-10-23T19:25:46;17.10;99.90
25741;DHT22;13592;50.838;4.412;2022-10-23T19:28:14;17.10;99.90
25741;DHT22;13592;50.838;4.412;2022-10-23T19:33:45;17.10;99.90
25741;DHT22;13592;50.838;4.412;2022-10-23T19:36:15;17.00;99.90
25741;DHT22;13592;50.838;4.412;2022-10-23T19:38:55;17.00;99.90
25741;DHT22;13592;50.838;4.412;2022-10-23T19:41:34;17.00;99.90
25741;DHT22;13592;50.838;4.412;2022-10-23T19:44:02;17.00;99.90
25741;DHT22;13592;50.838;4.412;2022-10-23T19:46:30;17.10;99.90
25741;DHT22;13592;50.838;4.412;2022-10-23T19:49:01;17.00;99.90
25741;DHT22;13592;50.838;4.412;2022-10-23T19:51:26;16.90;99.90
25741;DHT22;13592;50.838;4.412;2022-10-23T19:53:57;16.90;99.90
25741;DHT22;13592;50.838;4.412;2022-10-23T19:56:24;16.90;99.90
25741;DHT22;13592;50.838;4.412;2022-10-23T20:01:34;16.90;99.90
25741;DHT22;13592;50.838;4.412;2022-10-23T20:04:02;16.90;99.90
25741;DHT22;13592;50.838;4.412;2022-10-23T20:06:32;16.80;99.90
25741;DHT22;13592;50.838;4.412;2022-10-23T20:09:01;16.90;99.90
25741;DHT22;13592;50.838;4.412;2022-10-23T20:11:43;16.80;99.90
25741;DHT22;13592;50.838;4.412;2022-10-23T20:14:10;16.80;99.90
25741;DHT22;13592;50.838;4.412;2022-10-23T20:16:52;16.80;99.90
25741;DHT22;13592;50.838;4.412;2022-10-23T20:19:24;16.80;99.90
25741;DHT22;13592;50.838;4.412;2022-10-23T20:21:53;16.90;99.90
25741;DHT22;13592;50.838;4.412;2022-10-23T20:24:19;16.80;99.90
25741;DHT22;13592;50.838;4.412;2022-10-23T20:26:52;16.80;99.90
25741;DHT22;13592;50.838;4.412;2022-10-23T20:29:22;16.80;99.90
25741;DHT22;13592;50.838;4.412;2022-10-23T20:31:48;16.90;99.90
25741;DHT22;13592;50.838;4.412;2022-10-23T20:34:16;17.10;99.90
25741;DHT22;13592;50.838;4.412;2022-10-23T20:36:46;17.20;99.90
25741;DHT22;13592;50.838;4.412;2022-10-23T20:39:14;17.40;99.90
25741;DHT22;13592;50.838;4.412;2022-10-23T20:41:39;17.30;99.90
25741;DHT22;13592;50.838;4.412;2022-10-23T20:44:09;17.30;99.90
25741;DHT22;13592;50.838;4.412;2022-10-23T20:46:36;17.40;99.90
25741;DHT22;13592;50.838;4.412;2022-10-23T20:49:03;17.50;99.90
25741;DHT22;13592;50.838;4.412;2022-10-23T20:54:04;17.60;99.90
25741;DHT22;13592;50.838;4.412;2022-10-23T20:59:13;17.60;99.90
25741;DHT22;13592;50.838;4.412;2022-10-23T21:01:43;17.60;99.90
25741;DHT22;13592;50.838;4.412;2022-10-23T21:04:10;17.60;99.90
25741;DHT22;13592;50.838;4.412;2022-10-23T21:06:38;17.60;99.90
25741;DHT22;13592;50.838;4.412;2022-10-23T21:09:05;17.60;99.90
25741;DHT22;13592;50.838;4.412;2022-10-23T21:11:32;17.60;99.90
25741;DHT22;13592;50.838;4.412;2022-10-23T21:14:00;17.60;99.90
25741;DHT22;13592;50.838;4.412;2022-10-23T21:16:30;17.70;99.90
25741;DHT22;13592;50.838;4.412;2022-10-23T21:18:57;17.60;99.90
25741;DHT22;13592;50.838;4.412;2022-10-23T21:21:25;17.60;99.90
25741;DHT22;13592;50.838;4.412;2022-10-23T21:23:55;17.60;99.90
25741;DHT22;13592;50.838;4.412;2022-10-23T21:26:25;17.50;99.90
25741;DHT22;13592;50.838;4.412;2022-10-23T21:28:54;17.50;99.90
25741;DHT22;13592;50.838;4.412;2022-10-23T21:31:25;17.40;99.90
25741;DHT22;13592;50.838;4.412;2022-10-23T21:33:52;17.50;99.90
25741;DHT22;13592;50.838;4.412;2022-10-23T21:36:22;17.40;99.90
25741;DHT22;13592;50.838;4.412;2022-10-23T21:38:52;17.40;99.90
25741;DHT22;13592;50.838;4.412;2022-10-23T21:41:20;17.40;99.90
25741;DHT22;13592;50.838;4.412;2022-10-23T21:43:51;17.40;99.90
25741;DHT22;13592;50.838;4.412;2022-10-23T21:46:20;17.50;99.90